sensor_id;sensor_type;location;lat;lon;timestamp;temperature;humidity
44695;DHT22;32845;59.422;17.930;2022-10-31T00:01:33;2.20;99.90
44695;DHT22;32845;59.422;17.930;2022-10-31T00:06:04;2.20;99.90
44695;DHT22;32845;59.422;17.930;2022-10-31T00:10:38;2.10;99.90
44695;DHT22;32845;59.422;17.930;2022-10-31T00:15:09;2.20;99.90
44695;DHT22;32845;59.422;17.930;2022-10-31T00:19:40;2.20;99.90
44695;DHT22;32845;59.422;17.930;2022-10-31T00:24:10;2.20;99.90
44695;DHT22;32845;59.422;17.930;2022-10-31T00:28:41;2.20;99.90
44695;DHT22;32845;59.422;17.930;2022-10-31T00:33:12;2.20;99.90
44695;DHT22;32845;59.422;17.930;2022-10-31T00:37:43;2.40;99.90
44695;DHT22;32845;59.422;17.930;2022-10-31T00:42:13;2.70;99.90
44695;DHT22;32845;59.422;17.930;2022-10-31T00:46:44;2.90;99.90
44695;DHT22;32845;59.422;17.930;2022-10-31T00:51:15;3.00;99.90
44695;DHT22;32845;59.422;17.930;2022-10-31T00:55:45;3.00;99.90
44695;DHT22;32845;59.422;17.930;2022-10-31T01:00:16;3.00;99.90
44695;DHT22;32845;59.422;17.930;2022-10-31T01:04:47;3.00;99.90
44695;DHT22;32845;59.422;17.930;2022-10-31T01:09:18;3.00;99.90
44695;DHT22;32845;59.422;17.930;2022-10-31T01:13:53;3.00;99.90
44695;DHT22;32845;59.422;17.930;2022-10-31T01:18:24;3.00;99.90
44695;DHT22;32845;59.422;17.930;2022-10-31T01:22:55;2.90;99.90
44695;DHT22;32845;59.422;17.930;2022-10-31T01:27:25;2.90;99.90
44695;DHT22;32845;59.422;17.930;2022-10-31T01:31:56;2.80;99.90
44695;DHT22;32845;59.422;17.930;2022-10-31T01:36:36;2.80;99.90
44695;DHT22;32845;59.422;17.930;2022-10-31T01:41:08;2.70;99.90
44695;DHT22;32845;59.422;17.930;2022-10-31T01:45:41;2.60;99.90
44695;DHT22;32845;59.422;17.930;2022-10-31T01:50:26;2.60;99.90
44695;DHT22;32845;59.422;17.930;2022-10-31T01:55:05;2.60;99.90
44695;DHT22;32845;59.422;17.930;2022-10-31T01:59:42;2.60;99.90
44695;DHT22;32845;59.422;17.930;2022-10-31T02:04:15;2.60;99.90
44695;DHT22;32845;59.422;17.930;2022-10-31T02:08:46;2.60;99.90
44695;DHT22;32845;59.422;17.930;2022-10-31T02:13:17;2.50;99.90
44695;DHT22;32845;59.422;17.930;2022-10-31T02:17:49;2.50;99.90
44695;DHT22;32845;59.422;17.930;2022-10-31T02:22:44;2.50;99.90
44695;DHT22;32845;59.422;17.930;2022-10-31T02:27:40;2.50;99.90
44695;DHT22;32845;59.422;17.930;2022-10-31T02:32:20;2.60;99.90
44695;DHT22;32845;59.422;17.930;2022-10-31T02:37:13;2.60;99.90
44695;DHT22;32845;59.422;17.930;2022-10-31T02:51:30;2.80;99.90
44695;DHT22;32845;59.422;17.930;2022-10-31T02:56:05;2.80;99.90
44695;DHT22;32845;59.422;17.930;2022-10-31T03:19:48;2.90;99.90
44695;DHT22;32845;59.422;17.930;2022-10-31T03:24:21;3.10;99.90
44695;DHT22;32845;59.422;17.930;2022-10-31T03:29:03;3.30;99.90
44695;DHT22;32845;59.422;17.930;2022-10-31T03:33:36;3.30;99.90
44695;DHT22;32845;59.422;17.930;2022-10-31T03:38:09;3.50;99.90
44695;DHT22;32845;59.422;17.930;2022-10-31T03:42:42;3.50;99.90
44695;DHT22;32845;59.422;17.930;2022-10-31T03:47:14;3.60;99.90
44695;DHT22;32845;59.422;17.930;2022-10-31T03:51:50;3.80;99.90
44695;DHT22;32845;59.422;17.930;2022-10-31T03:56:32;3.90;99.90
44695;DHT22;32845;59.422;17.930;2022-10-31T04:01:06;4.10;99.90
44695;DHT22;32845;59.422;17.930;2022-10-31T04:05:38;4.20;99.90
44695;DHT22;32845;59.422;17.930;2022-10-31T04:10:12;4.30;99.90
44695;DHT22;32845;59.422;17.930;2022-10-31T04:14:45;4.40;99.90
44695;DHT22;32845;59.422;17.930;2022-10-31T04:19:17;4.60;99.90
44695;DHT22;32845;59.422;17.930;2022-10-31T04:23:47;4.80;99.90
44695;DHT22;32845;59.422;17.930;2022-10-31T04:28:18;4.90;99.90
44695;DHT22;32845;59.422;17.930;2022-10-31T04:32:49;5.20;99.90
44695;DHT22;32845;59.422;17.930;2022-10-31T04:37:19;5.30;99.90
44695;DHT22;32845;59.422;17.930;2022-10-31T04:41:55;5.40;99.90
44695;DHT22;32845;59.422;17.930;2022-10-31T04:46:26;5.50;99.90
44695;DHT22;32845;59.422;17.930;2022-10-31T04:51:00;5.60;99.90
44695;DHT22;32845;59.422;17.930;2022-10-31T04:55:31;5.70;99.90
44695;DHT22;32845;59.422;17.930;2022-10-31T05:00:02;5.80;99.90
44695;DHT22;32845;59.422;17.930;2022-10-31T05:04:33;5.90;99.90
44695;DHT22;32845;59.422;17.930;2022-10-31T05:09:04;5.90;99.90
44695;DHT22;32845;59.422;17.930;2022-10-31T05:13:34;6.00;99.90
44695;DHT22;32845;59.422;17.930;2022-10-31T05:18:05;6.00;99.90
44695;DHT22;32845;59.422;17.930;2022-10-31T05:22:36;6.20;99.90
44695;DHT22;32845;59.422;17.930;2022-10-31T05:27:06;6.30;99.90
44695;DHT22;32845;59.422;17.930;2022-10-31T05:31:37;6.50;99.90
44695;DHT22;32845;59.422;17.930;2022-10-31T05:36:08;6.60;99.90
44695;DHT22;32845;59.422;17.930;2022-10-31T05:40:39;6.60;99.90
44695;DHT22;32845;59.422;17.930;2022-10-31T05:45:12;6.70;99.90
44695;DHT22;32845;59.422;17.930;2022-10-31T05:49:43;6.80;99.90
44695;DHT22;32845;59.422;17.930;2022-10-31T05:54:13;6.80;99.90
44695;DHT22;32845;59.422;17.930;2022-10-31T05:58:44;6.90;99.90
44695;DHT22;32845;59.422;17.930;2022-10-31T06:03:15;7.00;99.90
44695;DHT22;32845;59.422;17.930;2022-10-31T06:07:45;7.10;99.90
44695;DHT22;32845;59.422;17.930;2022-10-31T06:12:16;7.10;99.90
44695;DHT22;32845;59.422;17.930;2022-10-31T06:16:46;7.20;99.90
44695;DHT22;32845;59.422;17.930;2022-10-31T06:21:22;7.20;99.90
44695;DHT22;32845;59.422;17.930;2022-10-31T06:25:53;7.30;99.90
44695;DHT22;32845;59.422;17.930;2022-10-31T06:30:24;7.40;99.90
44695;DHT22;32845;59.422;17.930;2022-10-31T06:34:55;7.50;99.90
44695;DHT22;32845;59.422;17.930;2022-10-31T06:39:31;7.50;99.90
44695;DHT22;32845;59.422;17.930;2022-10-31T06:44:02;7.50;99.90
44695;DHT22;32845;59.422;17.930;2022-10-31T06:48:32;7.50;99.90
44695;DHT22;32845;59.422;17.930;2022-10-31T06:53:03;7.60;99.90
44695;DHT22;32845;59.422;17.930;2022-10-31T06:57:36;7.70;99.90
44695;DHT22;32845;59.422;17.930;2022-10-31T07:02:09;7.70;99.90
44695;DHT22;32845;59.422;17.930;2022-10-31T07:06:39;7.80;99.90
44695;DHT22;32845;59.422;17.930;2022-10-31T07:11:15;7.80;99.90
44695;DHT22;32845;59.422;17.930;2022-10-31T07:15:46;7.90;99.90
44695;DHT22;32845;59.422;17.930;2022-10-31T07:20:17;8.00;99.90
44695;DHT22;32845;59.422;17.930;2022-10-31T07:24:47;8.10;99.90
44695;DHT22;32845;59.422;17.930;2022-10-31T07:29:18;8.10;99.90
44695;DHT22;32845;59.422;17.930;2022-10-31T07:33:50;8.20;99.90
44695;DHT22;32845;59.422;17.930;2022-10-31T07:38:20;8.30;99.90
44695;DHT22;32845;59.422;17.930;2022-10-31T07:42:52;8.30;99.90
44695;DHT22;32845;59.422;17.930;2022-10-31T07:47:23;8.30;99.90
44695;DHT22;32845;59.422;17.930;2022-10-31T07:51:54;8.30;99.90
44695;DHT22;32845;59.422;17.930;2022-10-31T07:56:25;8.30;99.90
44695;DHT22;32845;59.422;17.930;2022-10-31T08:00:57;8.40;99.90
44695;DHT22;32845;59.422;17.930;2022-10-31T08:05:28;8.40;99.90
44695;DHT22;32845;59.422;17.930;2022-10-31T08:09:59;8.50;99.90
44695;DHT22;32845;59.422;17.930;2022-10-31T08:14:30;8.50;99.90
44695;DHT22;32845;59.422;17.930;2022-10-31T08:19:00;8.60;99.90
44695;DHT22;32845;59.422;17.930;2022-10-31T08:23:31;8.70;99.90
44695;DHT22;32845;59.422;17.930;2022-10-31T08:28:02;8.80;99.90
44695;DHT22;32845;59.422;17.930;2022-10-31T08:32:32;8.80;99.90
44695;DHT22;32845;59.422;17.930;2022-10-31T08:37:03;8.90;99.90
44695;DHT22;32845;59.422;17.930;2022-10-31T08:41:34;8.90;99.90
44695;DHT22;32845;59.422;17.930;2022-10-31T08:46:06;9.00;99.90
44695;DHT22;32845;59.422;17.930;2022-10-31T08:50:37;9.00;99.90
44695;DHT22;32845;59.422;17.930;2022-10-31T08:55:08;9.00;99.90
44695;DHT22;32845;59.422;17.930;2022-10-31T08:59:39;9.10;99.90
44695;DHT22;32845;59.422;17.930;2022-10-31T09:04:10;9.20;99.90
44695;DHT22;32845;59.422;17.930;2022-10-31T09:08:40;9.20;99.90
44695;DHT22;32845;59.422;17.930;2022-10-31T09:13:16;9.30;99.90
44695;DHT22;32845;59.422;17.930;2022-10-31T09:17:48;9.40;99.90
44695;DHT22;32845;59.422;17.930;2022-10-31T09:22:18;9.40;99.90
44695;DHT22;32845;59.422;17.930;2022-10-31T09:26:49;9.50;99.90
44695;DHT22;32845;59.422;17.930;2022-10-31T09:31:20;9.60;99.90
44695;DHT22;32845;59.422;17.930;2022-10-31T09:35:50;9.60;99.90
44695;DHT22;32845;59.422;17.930;2022-10-31T09:40:22;9.70;99.90
44695;DHT22;32845;59.422;17.930;2022-10-31T09:45:16;9.70;99.90
44695;DHT22;32845;59.422;17.930;2022-10-31T09:49:59;9.70;99.90
44695;DHT22;32845;59.422;17.930;2022-10-31T09:54:56;9.80;99.90
44695;DHT22;32845;59.422;17.930;2022-10-31T09:59:36;9.80;99.90
44695;DHT22;32845;59.422;17.930;2022-10-31T10:04:37;9.80;99.90
44695;DHT22;32845;59.422;17.930;2022-10-31T10:09:10;9.80;99.90
44695;DHT22;32845;59.422;17.930;2022-10-31T10:19:17;9.90;99.90
44695;DHT22;32845;59.422;17.930;2022-10-31T10:28:38;9.90;99.90
44695;DHT22;32845;59.422;17.930;2022-10-31T10:33:13;10.00;99.90
44695;DHT22;32845;59.422;17.930;2022-10-31T10:37:46;10.00;99.90
44695;DHT22;32845;59.422;17.930;2022-10-31T10:42:17;10.00;99.90
44695;DHT22;32845;59.422;17.930;2022-10-31T10:47:06;10.10;99.90
44695;DHT22;32845;59.422;17.930;2022-10-31T11:01:14;10.30;99.90
44695;DHT22;32845;59.422;17.930;2022-10-31T11:05:56;10.30;99.90
44695;DHT22;32845;59.422;17.930;2022-10-31T11:10:28;10.40;99.90
44695;DHT22;32845;59.422;17.930;2022-10-31T11:15:07;10.40;99.90
44695;DHT22;32845;59.422;17.930;2022-10-31T11:19:38;10.40;99.90
44695;DHT22;32845;59.422;17.930;2022-10-31T11:28:39;10.50;99.90
44695;DHT22;32845;59.422;17.930;2022-10-31T11:33:38;10.60;99.90
44695;DHT22;32845;59.422;17.930;2022-10-31T11:38:20;10.60;99.90
44695;DHT22;32845;59.422;17.930;2022-10-31T11:42:55;11.10;99.90
44695;DHT22;32845;59.422;17.930;2022-10-31T11:47:28;11.50;99.90
44695;DHT22;32845;59.422;17.930;2022-10-31T11:52:07;12.00;99.90
44695;DHT22;32845;59.422;17.930;2022-10-31T11:56:42;12.10;99.90
44695;DHT22;32845;59.422;17.930;2022-10-31T12:01:25;12.20;99.90
44695;DHT22;32845;59.422;17.930;2022-10-31T12:06:00;12.20;99.90
44695;DHT22;32845;59.422;17.930;2022-10-31T12:15:33;12.20;99.90
44695;DHT22;32845;59.422;17.930;2022-10-31T12:25:08;12.20;99.90
44695;DHT22;32845;59.422;17.930;2022-10-31T12:30:06;12.20;99.90
44695;DHT22;32845;59.422;17.930;2022-10-31T12:35:05;12.20;99.90
44695;DHT22;32845;59.422;17.930;2022-10-31T12:44:41;12.20;99.90
44695;DHT22;32845;59.422;17.930;2022-10-31T12:49:32;12.20;99.90
44695;DHT22;32845;59.422;17.930;2022-10-31T12:59:01;12.40;99.90
44695;DHT22;32845;59.422;17.930;2022-10-31T13:03:45;12.50;99.90
44695;DHT22;32845;59.422;17.930;2022-10-31T13:08:28;12.50;99.90
44695;DHT22;32845;59.422;17.930;2022-10-31T13:17:56;12.50;99.90
44695;DHT22;32845;59.422;17.930;2022-10-31T13:22:31;12.50;99.90
44695;DHT22;32845;59.422;17.930;2022-10-31T13:27:22;12.50;99.90
44695;DHT22;32845;59.422;17.930;2022-10-31T13:31:54;12.50;99.90
44695;DHT22;32845;59.422;17.930;2022-10-31T13:36:45;12.40;99.90
44695;DHT22;32845;59.422;17.930;2022-10-31T13:46:01;12.40;99.90
44695;DHT22;32845;59.422;17.930;2022-10-31T13:50:33;12.40;99.90
44695;DHT22;32845;59.422;17.930;2022-10-31T13:55:03;12.40;99.90
44695;DHT22;32845;59.422;17.930;2022-10-31T13:59:37;12.40;99.90
44695;DHT22;32845;59.422;17.930;2022-10-31T14:04:16;12.40;99.90
44695;DHT22;32845;59.422;17.930;2022-10-31T14:08:50;12.40;99.90
44695;DHT22;32845;59.422;17.930;2022-10-31T14:13:32;12.40;99.90
44695;DHT22;32845;59.422;17.930;2022-10-31T14:18:06;12.40;99.90
44695;DHT22;32845;59.422;17.930;2022-10-31T14:22:39;12.40;99.90
44695;DHT22;32845;59.422;17.930;2022-10-31T14:41:45;12.40;99.90
44695;DHT22;32845;59.422;17.930;2022-10-31T14:55:50;12.50;99.90
44695;DHT22;32845;59.422;17.930;2022-10-31T15:00:23;12.40;99.90
44695;DHT22;32845;59.422;17.930;2022-10-31T15:04:55;12.40;99.90
44695;DHT22;32845;59.422;17.930;2022-10-31T15:09:32;12.40;99.90
44695;DHT22;32845;59.422;17.930;2022-10-31T15:14:29;12.30;99.90
44695;DHT22;32845;59.422;17.930;2022-10-31T15:19:06;12.30;99.90
44695;DHT22;32845;59.422;17.930;2022-10-31T15:23:37;12.20;99.90
44695;DHT22;32845;59.422;17.930;2022-10-31T15:28:20;12.10;99.90
44695;DHT22;32845;59.422;17.930;2022-10-31T15:32:56;12.10;99.90
44695;DHT22;32845;59.422;17.930;2022-10-31T15:37:27;12.00;99.90
44695;DHT22;32845;59.422;17.930;2022-10-31T15:41:59;11.90;99.90
44695;DHT22;32845;59.422;17.930;2022-10-31T15:46:30;11.90;99.90
44695;DHT22;32845;59.422;17.930;2022-10-31T15:51:01;11.80;99.90
44695;DHT22;32845;59.422;17.930;2022-10-31T15:55:38;11.80;99.90
44695;DHT22;32845;59.422;17.930;2022-10-31T16:04:59;11.60;99.90
44695;DHT22;32845;59.422;17.930;2022-10-31T16:09:31;11.60;99.90
44695;DHT22;32845;59.422;17.930;2022-10-31T16:14:13;11.40;99.90
44695;DHT22;32845;59.422;17.930;2022-10-31T16:18:46;11.30;99.90
44695;DHT22;32845;59.422;17.930;2022-10-31T16:23:18;11.30;99.90
44695;DHT22;32845;59.422;17.930;2022-10-31T16:27:51;11.20;99.90
44695;DHT22;32845;59.422;17.930;2022-10-31T16:32:36;11.30;99.90
44695;DHT22;32845;59.422;17.930;2022-10-31T16:37:07;11.30;99.90
44695;DHT22;32845;59.422;17.930;2022-10-31T16:41:50;11.30;99.90
44695;DHT22;32845;59.422;17.930;2022-10-31T16:46:24;11.30;99.90
44695;DHT22;32845;59.422;17.930;2022-10-31T16:50:55;11.20;99.90
44695;DHT22;32845;59.422;17.930;2022-10-31T16:55:25;11.20;99.90
44695;DHT22;32845;59.422;17.930;2022-10-31T16:59:56;11.30;99.90
44695;DHT22;32845;59.422;17.930;2022-10-31T17:04:28;11.20;99.90
44695;DHT22;32845;59.422;17.930;2022-10-31T17:09:03;11.30;99.90
44695;DHT22;32845;59.422;17.930;2022-10-31T17:13:34;11.30;99.90
44695;DHT22;32845;59.422;17.930;2022-10-31T17:18:05;11.20;99.90
44695;DHT22;32845;59.422;17.930;2022-10-31T17:22:35;11.20;99.90
44695;DHT22;32845;59.422;17.930;2022-10-31T17:27:06;11.20;99.90
44695;DHT22;32845;59.422;17.930;2022-10-31T17:31:37;11.20;99.90
44695;DHT22;32845;59.422;17.930;2022-10-31T17:36:08;11.20;99.90
44695;DHT22;32845;59.422;17.930;2022-10-31T17:40:44;11.30;99.90
44695;DHT22;32845;59.422;17.930;2022-10-31T17:45:15;11.30;99.90
44695;DHT22;32845;59.422;17.930;2022-10-31T17:49:46;11.30;99.90
44695;DHT22;32845;59.422;17.930;2022-10-31T17:54:17;11.30;99.90
44695;DHT22;32845;59.422;17.930;2022-10-31T17:58:57;11.20;99.90
44695;DHT22;32845;59.422;17.930;2022-10-31T18:03:27;11.20;99.90
44695;DHT22;32845;59.422;17.930;2022-10-31T18:07:59;11.20;99.90
44695;DHT22;32845;59.422;17.930;2022-10-31T18:12:29;11.20;99.90
44695;DHT22;32845;59.422;17.930;2022-10-31T18:17:01;11.20;99.90
44695;DHT22;32845;59.422;17.930;2022-10-31T18:21:32;11.20;99.90
44695;DHT22;32845;59.422;17.930;2022-10-31T18:26:03;11.20;99.90
44695;DHT22;32845;59.422;17.930;2022-10-31T18:30:38;11.20;99.90
44695;DHT22;32845;59.422;17.930;2022-10-31T18:35:08;11.20;99.90
44695;DHT22;32845;59.422;17.930;2022-10-31T18:39:39;11.20;99.90
44695;DHT22;32845;59.422;17.930;2022-10-31T18:44:10;11.20;99.90
44695;DHT22;32845;59.422;17.930;2022-10-31T18:48:42;11.20;99.90
44695;DHT22;32845;59.422;17.930;2022-10-31T18:53:13;11.20;99.90
44695;DHT22;32845;59.422;17.930;2022-10-31T18:57:43;11.20;99.90
44695;DHT22;32845;59.422;17.930;2022-10-31T19:02:14;11.10;99.90
44695;DHT22;32845;59.422;17.930;2022-10-31T19:06:45;11.00;99.90
44695;DHT22;32845;59.422;17.930;2022-10-31T19:11:15;11.00;99.90
44695;DHT22;32845;59.422;17.930;2022-10-31T19:15:46;10.90;99.90
44695;DHT22;32845;59.422;17.930;2022-10-31T19:20:17;10.80;99.90
44695;DHT22;32845;59.422;17.930;2022-10-31T19:24:48;10.60;99.90
44695;DHT22;32845;59.422;17.930;2022-10-31T19:29:19;10.60;99.90
44695;DHT22;32845;59.422;17.930;2022-10-31T19:33:49;10.50;99.90
44695;DHT22;32845;59.422;17.930;2022-10-31T19:38:20;10.30;99.90
44695;DHT22;32845;59.422;17.930;2022-10-31T19:42:57;10.20;99.90
44695;DHT22;32845;59.422;17.930;2022-10-31T19:47:28;10.00;99.90
44695;DHT22;32845;59.422;17.930;2022-10-31T19:51:58;9.90;99.90
44695;DHT22;32845;59.422;17.930;2022-10-31T19:56:29;9.80;99.90
44695;DHT22;32845;59.422;17.930;2022-10-31T20:01:12;9.80;99.90
44695;DHT22;32845;59.422;17.930;2022-10-31T20:05:43;9.80;99.90
44695;DHT22;32845;59.422;17.930;2022-10-31T20:10:15;9.80;99.90
44695;DHT22;32845;59.422;17.930;2022-10-31T20:14:48;9.80;99.90
44695;DHT22;32845;59.422;17.930;2022-10-31T20:19:23;9.70;99.90
44695;DHT22;32845;59.422;17.930;2022-10-31T20:23:59;9.60;99.90
44695;DHT22;32845;59.422;17.930;2022-10-31T20:28:31;9.60;99.90
44695;DHT22;32845;59.422;17.930;2022-10-31T20:33:02;9.50;99.90
44695;DHT22;32845;59.422;17.930;2022-10-31T20:37:32;9.40;99.90
44695;DHT22;32845;59.422;17.930;2022-10-31T20:42:08;9.30;99.90
44695;DHT22;32845;59.422;17.930;2022-10-31T20:46:39;9.20;99.90
44695;DHT22;32845;59.422;17.930;2022-10-31T20:51:20;9.20;99.90
44695;DHT22;32845;59.422;17.930;2022-10-31T20:56:06;9.20;99.90
44695;DHT22;32845;59.422;17.930;2022-10-31T21:00:37;9.10;99.90
44695;DHT22;32845;59.422;17.930;2022-10-31T21:05:09;9.10;99.90
44695;DHT22;32845;59.422;17.930;2022-10-31T21:09:40;9.00;99.90
44695;DHT22;32845;59.422;17.930;2022-10-31T21:14:12;8.90;99.90
44695;DHT22;32845;59.422;17.930;2022-10-31T21:18:44;9.10;99.90
44695;DHT22;32845;59.422;17.930;2022-10-31T21:23:15;9.20;99.90
44695;DHT22;32845;59.422;17.930;2022-10-31T21:27:46;9.20;99.90
44695;DHT22;32845;59.422;17.930;2022-10-31T21:32:16;9.20;99.90
44695;DHT22;32845;59.422;17.930;2022-10-31T21:36:47;9.20;99.90
44695;DHT22;32845;59.422;17.930;2022-10-31T21:41:19;9.10;99.90
44695;DHT22;32845;59.422;17.930;2022-10-31T21:45:49;9.10;99.90
44695;DHT22;32845;59.422;17.930;2022-10-31T21:50:20;9.00;99.90
44695;DHT22;32845;59.422;17.930;2022-10-31T21:54:51;9.00;99.90
44695;DHT22;32845;59.422;17.930;2022-10-31T21:59:28;9.00;99.90
44695;DHT22;32845;59.422;17.930;2022-10-31T22:03:59;9.00;99.90
44695;DHT22;32845;59.422;17.930;2022-10-31T22:08:30;9.10;99.90
44695;DHT22;32845;59.422;17.930;2022-10-31T22:13:05;9.10;99.90
44695;DHT22;32845;59.422;17.930;2022-10-31T22:17:36;9.10;99.90
44695;DHT22;32845;59.422;17.930;2022-10-31T22:22:07;9.10;99.90
44695;DHT22;32845;59.422;17.930;2022-10-31T22:26:38;9.00;99.90
44695;DHT22;32845;59.422;17.930;2022-10-31T22:31:16;9.00;99.90
44695;DHT22;32845;59.422;17.930;2022-10-31T22:35:47;9.00;99.90
44695;DHT22;32845;59.422;17.930;2022-10-31T22:40:17;9.00;99.90
44695;DHT22;32845;59.422;17.930;2022-10-31T22:44:48;9.10;99.90
44695;DHT22;32845;59.422;17.930;2022-10-31T22:49:19;9.00;99.90
44695;DHT22;32845;59.422;17.930;2022-10-31T22:53:50;9.00;99.90
44695;DHT22;32845;59.422;17.930;2022-10-31T22:58:21;9.00;99.90
44695;DHT22;32845;59.422;17.930;2022-10-31T23:02:51;9.00;99.90
44695;DHT22;32845;59.422;17.930;2022-10-31T23:07:22;9.00;99.90
44695;DHT22;32845;59.422;17.930;2022-10-31T23:11:53;9.00;99.90
44695;DHT22;32845;59.422;17.930;2022-10-31T23:16:24;8.90;99.90
44695;DHT22;32845;59.422;17.930;2022-10-31T23:21:00;8.70;99.90
44695;DHT22;32845;59.422;17.930;2022-10-31T23:25:31;8.50;99.90
44695;DHT22;32845;59.422;17.930;2022-10-31T23:30:25;8.50;99.90
44695;DHT22;32845;59.422;17.930;2022-10-31T23:34:59;8.50;99.90
44695;DHT22;32845;59.422;17.930;2022-10-31T23:39:29;8.60;99.90
44695;DHT22;32845;59.422;17.930;2022-10-31T23:44:00;8.60;99.90
44695;DHT22;32845;59.422;17.930;2022-10-31T23:48:31;8.60;99.90
44695;DHT22;32845;59.422;17.930;2022-10-31T23:53:06;8.70;99.90
44695;DHT22;32845;59.422;17.930;2022-10-31T23:57:37;8.60;99.90
